Rich Square, NC (27869)

8:47 AM EST on March 03, 2015 (GMT -0500)
Tri County | Change Station
CLOSE
Current Station
Airport
Location: Ahoskie,
Elevation: 69 ft
Nearby Weather Stations

Elev 69 ft 36.30 °N, 77.17 °W | Updated 32 minutes ago

Overcast
Overcast
32 °F
Feels Like 29 °F
N
4
Wind Variable Wind from NNE

Today
High -- | Low -- °F
--% Chance of Precip.
Yesterday
High -- | Low -- °F
Precip. -- in
6:37 AM 6:05 PM
Waxing Gibbous, 96% visible
Pressure 30.45 in
Visibility 10.0 miles
Clouds Scattered Clouds 5000 ft
Overcast 6000 ft
Windchill 29 °F
Dew Point 21 °F
Humidity 64%
Rainfall 0.00 in
Snow Depth Not available.
UV 0 out of 12
Pollen 7.00 out of 12
Air Quality Not available.
Flu Activity Not available.
METAR KASJ 031315Z AUTO 02003KT 10SM SCT050 OVC060 00/M06 A3045 RMK AO2 T00001060

More Conditions Fewer Conditions

Pressure 30.45 in
Visibility 10.0 miles
Clouds Scattered Clouds 5000 ft
Overcast 6000 ft
Windchill 29 °F
Dew Point 21 °F
Humidity 64%
Rainfall 0.00 in
Snow Depth Not available.
UV 0 out of 12
Pollen 7.00 out of 12
Air Quality Not available.
Flu Activity Not available.
METAR KASJ 031315Z AUTO 02003KT 10SM SCT050 OVC060 00/M06 A3045 RMK AO2 T00001060

More Conditions Fewer Conditions

10-Day Weather Forecast

Almanac

Astronomy

Mar. 03, 2015 Rise Set
Actual Time
Civil Twilight
Nautical Twilight
Astronomical Twilight
Moon
Length of Visible Light
Length of Day
Tomorrow will be .
, % of the Moon is Illuminated

Today's Extremes

State Highs State Lows

Community

WunderPhotos

Upload Photos

1,802,102 photos uploaded!

WunderBlogs® & News

Nearby

Air Quality

  Air Quality AQ Index Pollutant
Not available.

Snow Depth

Station Depth Elevation

Earthquake Activity

City Distance Mag. Time & Date
Minimum magnitude displayed is 2.5.

Coastal Water Temperatures

Place Temperature

Nearby Weather Stations